Thalia — FPCS — position and weather

sailwx.info

Track history (hours):
 
Tides and Currents Weather Stations Pressure Air Temp Water Temp Dewpoint Dewpoint Depression Visibility Wind Speed Wind Dir Waves Ship Positions

Oceanographic research ship Thalia (France)

Detailed information on ship capabilities available from University of Delaware's Ocean Information Center.

Last reported at 2019-Oct-08 17:35 UTC. Time now 2019-Oct-14 10:20 UTC.
Position N 47°52' W 003°55'.

Length 25 m; beam 7 m.

Type: Fishing. MMSI: 227270000.

Date/timePositionNaut miles runAvg speedWind from/ knotsBaromVisibWave heightAir tempDewpointWater temp
2019-Oct-08 17:35N 47°52' W 003°55'0 6.0
2019-Oct-08 17:31N 47°51' W 003°56'14 8.6
2019-Oct-08 15:50N 47°40' W 003°42'3 9.5
2019-Oct-08 15:30N 47°38' W 003°38'5 9.5
2019-Oct-08 15:00N 47°36' W 003°32'5 9.6
2019-Oct-08 14:30N 47°33' W 003°27'5 9.5
2019-Oct-08 14:01N 47°30' W 003°21'5 9.5
2019-Oct-08 13:30N 47°27' W 003°15'5 9.5
2019-Oct-08 13:01N 47°25' W 003°09'5 9.6
2019-Oct-08 12:31N 47°22' W 003°03'5 9.7
2019-Oct-08 12:01N 47°20' W 002°57'5 9.7
2019-Oct-08 11:31N 47°18' W 002°50'5 9.8
2019-Oct-08 11:01N 47°19' W 002°43'5 9.5
2019-Oct-08 10:31N 47°20' W 002°36'4 7.1
2019-Oct-08 10:01N 47°21' W 002°31'0 0.0
2019-Oct-07 16:34N 47°21' W 002°31'0 0.0
2019-Oct-07 16:22N 47°21' W 002°31'0 0.0
2019-Oct-07 15:43N 47°21' W 002°31'0 0.0
2019-Oct-07 15:28N 47°21' W 002°31'0 0.0
2019-Oct-07 14:58N 47°21' W 002°31'0 0.0
2019-Oct-07 14:22N 47°21' W 002°31'0 0.0
2019-Oct-07 14:00N 47°21' W 002°31'0 0.0
2019-Oct-07 13:29N 47°21' W 002°31'1 1.3
2019-Oct-07 13:01N 47°20' W 002°32'2 4.5
2019-Oct-07 12:31N 47°22' W 002°35'2 4.3
2019-Oct-07 12:00N 47°23' W 002°37'2 4.4
2019-Oct-07 11:29N 47°25' W 002°38'2 4.3
2019-Oct-07 10:55N 47°28' W 002°39'0 0.6
2019-Oct-07 10:30N 47°28' W 002°39'0 0.3
2019-Oct-07 10:00N 47°28' W 002°39'0 0.2
2019-Oct-07 09:30N 47°28' W 002°40'0 0.4
2019-Oct-07 09:00N 47°27' W 002°39'0 0.4
2019-Oct-07 08:30N 47°28' W 002°39'1 2.2
2019-Oct-07 08:00N 47°27' W 002°39'5 9.2
2019-Oct-07 07:30N 47°22' W 002°36'4 7.6
2019-Oct-07 07:00N 47°21' W 002°31'0 0.0
2019-Oct-07 02:59N 47°21' W 002°31'0 0.0
2019-Oct-07 01:53N 47°21' W 002°31'0 0.0
2019-Oct-07 01:26N 47°21' W 002°31'0 0.0
2019-Oct-07 00:56N 47°21' W 002°31'0 0.0
2019-Oct-07 00:29N 47°21' W 002°31'0 0.0
2019-Oct-06 23:56N 47°21' W 002°31'0 0.0
2019-Oct-06 23:29N 47°21' W 002°31'0 0.0
2019-Oct-06 22:59N 47°21' W 002°31'0 0.0
2019-Oct-06 22:29N 47°21' W 002°31'0 0.0
2019-Oct-06 21:29N 47°21' W 002°31'0 0.0
2019-Oct-06 20:53N 47°21' W 002°31'0 0.0
2019-Oct-06 19:53N 47°21' W 002°31'0 0.0
2019-Oct-06 17:59N 47°21' W 002°31'0 0.6
2019-Oct-06 17:30N 47°21' W 002°31'4 8.1
2019-Oct-06 17:01N 47°20' W 002°37'510.4
2019-Oct-06 16:31N 47°19' W 002°44'510.0
2019-Oct-06 16:01N 47°18' W 002°52'510.2
2019-Oct-06 15:31N 47°20' W 002°59'510.2
2019-Oct-06 15:01N 47°22' W 003°06'5 9.8
2019-Oct-06 14:30N 47°24' W 003°12'5 9.7
2019-Oct-06 14:01N 47°26' W 003°19'5 9.8
2019-Oct-06 13:31N 47°28' W 003°26'5 9.8
2019-Oct-06 13:00N 47°30' W 003°32'5 9.9
2019-Oct-06 12:31N 47°32' W 003°39'5 9.9
2019-Oct-06 12:00N 47°34' W 003°46'2410.2
2019-Oct-06 09:40N 47°44' W 004°17'210.5
2019-Oct-06 09:30N 47°45' W 004°20'510.3
2019-Oct-06 09:00N 47°48' W 004°26'510.1
2019-Oct-06 08:30N 47°52' W 004°31'510.2
2019-Oct-06 08:00N 47°56' W 004°36'510.0
2019-Oct-06 07:31N 47°59' W 004°42'5 9.1
2019-Oct-06 07:00N 48°03' W 004°46'4 8.8
2019-Oct-06 06:30N 48°07' W 004°44'5 9.8
2019-Oct-06 06:00N 48°12' W 004°43'5 9.4
2019-Oct-06 05:30N 48°16' W 004°40'5 9.2
2019-Oct-06 05:00N 48°19' W 004°35'4 7.7
2019-Oct-06 04:30N 48°22' W 004°31'2 3.7
2019-Oct-06 04:00N 48°23' W 004°29'0 0.0
2019-Oct-06 03:30N 48°23' W 004°29'0 0.0
2019-Oct-06 03:00N 48°23' W 004°29'0 0.0
2019-Oct-06 02:30N 48°23' W 004°29'0 0.0
2019-Oct-06 02:00N 48°23' W 004°29'0 0.0
2019-Oct-06 01:30N 48°23' W 004°29'0 0.0
2019-Oct-06 01:00N 48°23' W 004°29'0 0.0
2019-Oct-06 00:30N 48°23' W 004°29'0 0.0
2019-Oct-06 00:00N 48°23' W 004°29'0 0.0
2019-Oct-05 23:30N 48°23' W 004°29'0 0.0
2019-Oct-05 23:00N 48°23' W 004°29'0 0.0
2019-Oct-05 22:30N 48°23' W 004°29'0 0.0
2019-Oct-05 22:00N 48°23' W 004°29'0 0.0
2019-Oct-05 21:30N 48°23' W 004°29'0 0.0
2019-Oct-05 21:00N 48°23' W 004°29'0 0.0
2019-Oct-05 20:30N 48°23' W 004°29'0 0.0
2019-Oct-05 20:00N 48°23' W 004°29'0 0.0
2019-Oct-05 19:30N 48°23' W 004°29'0 0.0
2019-Oct-05 19:00N 48°23' W 004°29'0 0.0
2019-Oct-05 18:30N 48°23' W 004°29'0 0.0
2019-Oct-05 18:00N 48°23' W 004°29'0 0.0
2019-Oct-05 17:30N 48°23' W 004°29'0 0.0
2019-Oct-05 17:00N 48°23' W 004°29'0 0.0
2019-Oct-05 16:30N 48°23' W 004°29'0 0.0
2019-Oct-05 16:00N 48°23' W 004°29'0 0.0
2019-Oct-05 15:30N 48°23' W 004°29'0 0.0
2019-Oct-05 15:00N 48°23' W 004°29'0 0.0
2019-Oct-05 14:30N 48°23' W 004°29'0 0.0
2019-Oct-05 14:00N 48°23' W 004°29'0 0.0
2019-Oct-05 13:30N 48°23' W 004°29'0 0.0
2019-Oct-05 13:00N 48°23' W 004°29'0 0.0
2019-Oct-05 12:30N 48°23' W 004°29'0 0.0
2019-Oct-05 12:00N 48°23' W 004°29'0 0.0
2019-Oct-05 11:30N 48°23' W 004°29'0 0.0
2019-Oct-05 11:00N 48°23' W 004°29'0 0.0
2019-Oct-05 10:30N 48°23' W 004°29'0 0.0
2019-Oct-05 10:00N 48°23' W 004°29'0 0.0
2019-Oct-05 09:30N 48°23' W 004°29'0 0.0
2019-Oct-05 09:00N 48°23' W 004°29'0 0.0
2019-Oct-05 08:30N 48°23' W 004°29'0 0.0
2019-Oct-05 08:00N 48°23' W 004°29'0 0.0
2019-Oct-05 07:30N 48°23' W 004°29'0 0.0
2019-Oct-05 07:00N 48°23' W 004°29'0 0.0
2019-Oct-05 06:30N 48°23' W 004°29'0 0.0
2019-Oct-05 06:00N 48°23' W 004°29'0 0.0
2019-Oct-05 05:30N 48°23' W 004°29'0 0.0
2019-Oct-05 05:00N 48°23' W 004°29'0 0.0
2019-Oct-05 04:30N 48°23' W 004°29'0 0.0
2019-Oct-05 04:00N 48°23' W 004°29'0 0.0
2019-Oct-05 03:30N 48°23' W 004°29'0 0.0
2019-Oct-05 03:00N 48°23' W 004°29'0 0.0
2019-Oct-05 02:30N 48°23' W 004°29'0 0.0
2019-Oct-05 02:00N 48°23' W 004°29'0 0.0
2019-Oct-05 01:30N 48°23' W 004°29'0 0.0
2019-Oct-05 01:00N 48°23' W 004°29'0 0.0
2019-Oct-05 00:30N 48°23' W 004°29'0 0.0
2019-Oct-05 00:00N 48°23' W 004°29'0 0.0
2019-Oct-04 23:30N 48°23' W 004°29'0 0.0
2019-Oct-04 23:00N 48°23' W 004°29'0 0.0
2019-Oct-04 22:30N 48°23' W 004°29'0 0.0
2019-Oct-04 22:00N 48°23' W 004°29'0 0.0
2019-Oct-04 21:30N 48°23' W 004°29'0 0.0
2019-Oct-04 21:00N 48°23' W 004°29'0 0.0
2019-Oct-04 20:30N 48°23' W 004°29'0 0.0
2019-Oct-04 20:00N 48°23' W 004°29'0 0.0
2019-Oct-04 19:30N 48°23' W 004°29'0 0.0
2019-Oct-04 19:00N 48°23' W 004°29'0 0.0
2019-Oct-04 18:30N 48°23' W 004°29'0 0.0
2019-Oct-04 18:00N 48°23' W 004°29'0 0.0
2019-Oct-04 17:30N 48°23' W 004°29'0 0.0
2019-Oct-04 17:00N 48°23' W 004°29'0 0.0
2019-Oct-04 16:30N 48°23' W 004°29'0 0.0
2019-Oct-04 16:00N 48°23' W 004°29'0 0.0
2019-Oct-04 15:30N 48°23' W 004°29'0 0.0
2019-Oct-04 15:00N 48°23' W 004°29'0 0.0
2019-Oct-04 14:30N 48°23' W 004°29'0 0.0
2019-Oct-04 14:00N 48°23' W 004°29'0 0.0
2019-Oct-04 13:30N 48°23' W 004°29'0 0.0
2019-Oct-04 13:00N 48°23' W 004°29'0 0.0
2019-Oct-04 12:30N 48°23' W 004°29'0 0.0
2019-Oct-04 12:00N 48°23' W 004°29'0 0.0
2019-Oct-04 11:30N 48°23' W 004°29'0 0.0
2019-Oct-04 11:00N 48°23' W 004°29'0 0.0
2019-Oct-04 10:30N 48°23' W 004°29'0 0.0
2019-Oct-04 10:00N 48°23' W 004°29'0 0.0
2019-Oct-04 09:30N 48°23' W 004°29'0 0.0
2019-Oct-04 09:00N 48°23' W 004°29'0 0.0
2019-Oct-04 08:30N 48°23' W 004°29'0 0.0
2019-Oct-04 08:00N 48°23' W 004°29'0 0.0
2019-Oct-04 07:30N 48°23' W 004°29'0 0.0
2019-Oct-04 07:00N 48°23' W 004°29'0 0.0
2019-Oct-04 06:30N 48°23' W 004°29'0 0.0
2019-Oct-04 06:00N 48°23' W 004°29'0 0.0
2019-Oct-04 05:30N 48°23' W 004°29'0 0.0
2019-Oct-04 05:00N 48°23' W 004°29'0 0.0
2019-Oct-04 04:30N 48°23' W 004°29'0 0.0
2019-Oct-04 04:00N 48°23' W 004°29'0 0.0
2019-Oct-04 03:30N 48°23' W 004°29'0 0.0
2019-Oct-04 03:00N 48°23' W 004°29'0 0.0
2019-Oct-04 02:30N 48°23' W 004°29'0 0.0
2019-Oct-04 02:00N 48°23' W 004°29'0 0.0
2019-Oct-04 01:30N 48°23' W 004°29'0 0.0
2019-Oct-04 01:00N 48°23' W 004°29'0 0.0
2019-Oct-04 00:30N 48°23' W 004°29'0 0.0
2019-Oct-04 00:00N 48°23' W 004°29'0 0.0
2019-Oct-03 23:30N 48°23' W 004°29'0 0.0
2019-Oct-03 23:00N 48°23' W 004°29'0 0.0
2019-Oct-03 22:30N 48°23' W 004°29'0 0.0
2019-Oct-03 22:00N 48°23' W 004°29'0 0.0
2019-Oct-03 21:30N 48°23' W 004°29'0 0.0
2019-Oct-03 21:00N 48°23' W 004°29'0 0.0
2019-Oct-03 20:30N 48°23' W 004°29'0 0.0
2019-Oct-03 20:00N 48°23' W 004°29'0 0.0
2019-Oct-03 19:30N 48°23' W 004°29'0 0.0
2019-Oct-03 19:00N 48°23' W 004°29'0 0.0
2019-Oct-03 18:30N 48°23' W 004°29'0 0.0
2019-Oct-03 18:00N 48°23' W 004°29'0 0.0
2019-Oct-03 17:30N 48°23' W 004°29'0 0.0
2019-Oct-03 17:00N 48°23' W 004°29'0 0.0
2019-Oct-03 16:30N 48°23' W 004°29'0 0.0
2019-Oct-03 16:00N 48°23' W 004°29'0 0.0
2019-Oct-03 15:30N 48°23' W 004°29'0 0.0
2019-Oct-03 15:00N 48°23' W 004°29'0 0.0
2019-Oct-03 14:30N 48°23' W 004°29'0 0.0
2019-Oct-03 14:00N 48°23' W 004°29'0 0.0
2019-Oct-03 13:30N 48°23' W 004°29'0 0.0
2019-Oct-03 13:00N 48°23' W 004°29'0 0.0
2019-Oct-03 12:30N 48°23' W 004°29'0 0.0
2019-Oct-03 12:00N 48°23' W 004°29'0 0.0
2019-Oct-03 11:30N 48°23' W 004°29'0 0.0
2019-Oct-03 11:00N 48°23' W 004°29'0 0.0
2019-Oct-03 10:30N 48°23' W 004°29'0 0.0
2019-Oct-03 10:00N 48°23' W 004°29'0 0.0
2019-Oct-03 09:30N 48°23' W 004°29'0 0.0
2019-Oct-03 09:00N 48°23' W 004°29'0 0.0
2019-Oct-03 08:30N 48°23' W 004°29'0 0.0
2019-Oct-03 08:00N 48°23' W 004°29'0 0.0
2019-Oct-03 07:30N 48°23' W 004°29'0 0.0
2019-Oct-03 07:00N 48°23' W 004°29'0 0.0
2019-Oct-03 06:30N 48°23' W 004°29'0 0.0
2019-Oct-03 06:00N 48°23' W 004°29'0 0.0
2019-Oct-03 05:30N 48°23' W 004°29'0 0.0
2019-Oct-03 05:00N 48°23' W 004°29'0 0.0
2019-Oct-03 04:30N 48°23' W 004°29'0 0.0
2019-Oct-03 04:00N 48°23' W 004°29'0 0.0
2019-Oct-03 03:30N 48°23' W 004°29'0 0.0
2019-Oct-03 03:00N 48°23' W 004°29'0 0.0
2019-Oct-03 02:30N 48°23' W 004°29'0 0.0
2019-Oct-03 02:00N 48°23' W 004°29'0 0.0
2019-Oct-03 01:30N 48°23' W 004°29'0 0.0
2019-Oct-03 01:00N 48°23' W 004°29'0 0.0
2019-Oct-03 00:30N 48°23' W 004°29'0 0.0
2019-Oct-03 00:00N 48°23' W 004°29'0 0.0
2019-Oct-02 23:30N 48°23' W 004°29'0 0.0
2019-Oct-02 23:00N 48°23' W 004°29'0 0.0
2019-Oct-02 22:30N 48°23' W 004°29'0 0.0
2019-Oct-02 22:00N 48°23' W 004°29'0 0.0
2019-Oct-02 21:30N 48°23' W 004°29'0 0.0
2019-Oct-02 21:00N 48°23' W 004°29'0 0.0
2019-Oct-02 20:30N 48°23' W 004°29'0 0.0
2019-Oct-02 20:00N 48°23' W 004°29'0 0.0
2019-Oct-02 19:30N 48°23' W 004°29'0 0.0
2019-Oct-02 19:00N 48°23' W 004°29'0 0.0
2019-Oct-02 18:30N 48°23' W 004°29'0 0.0
2019-Oct-02 18:00N 48°23' W 004°29'0 0.0
2019-Oct-02 17:30N 48°23' W 004°29'0 0.0
2019-Oct-02 17:00N 48°23' W 004°29'0 0.0
2019-Oct-02 16:30N 48°23' W 004°29'0 0.0
2019-Oct-02 16:00N 48°23' W 004°29'0 0.0
2019-Oct-02 15:30N 48°23' W 004°29'0 0.0
2019-Oct-02 14:57N 48°23' W 004°29'0 0.0
2019-Oct-02 14:30N 48°23' W 004°29'0 0.0
2019-Oct-02 14:00N 48°23' W 004°29'0 0.0
2019-Oct-02 13:30N 48°23' W 004°29'0 0.0
2019-Oct-02 13:00N 48°23' W 004°29'0 0.0
2019-Oct-02 12:30N 48°23' W 004°29'0 0.0
2019-Oct-02 12:00N 48°23' W 004°29'0 0.0
2019-Oct-02 11:30N 48°23' W 004°29'0 0.0
2019-Oct-02 11:00N 48°23' W 004°29'0 0.0
2019-Oct-02 10:30N 48°23' W 004°29'0 0.0
2019-Oct-02 10:00N 48°23' W 004°29'0 0.0
2019-Oct-02 09:30N 48°23' W 004°29'0 0.0
2019-Oct-02 08:57N 48°23' W 004°29'0 0.0
2019-Oct-02 08:27N 48°23' W 004°29'0 0.0
2019-Oct-02 08:00N 48°23' W 004°29'0 0.0
2019-Oct-02 07:27N 48°23' W 004°29'0 0.0
2019-Oct-02 07:00N 48°23' W 004°29'0 0.0
2019-Oct-02 06:30N 48°23' W 004°29'0 0.0
2019-Oct-02 06:00N 48°23' W 004°29'0 0.0
2019-Oct-02 05:30N 48°23' W 004°29'0 0.0
2019-Oct-02 05:00N 48°23' W 004°29'0 0.0
2019-Oct-02 04:30N 48°23' W 004°29'0 0.0
2019-Oct-02 04:00N 48°23' W 004°29'0 0.0
2019-Oct-02 03:30N 48°23' W 004°29'0 0.0
2019-Oct-02 03:00N 48°23' W 004°29'0 0.0
2019-Oct-02 02:27N 48°23' W 004°29'0 0.0
2019-Oct-02 01:57N 48°23' W 004°29'0 0.0
2019-Oct-02 01:30N 48°23' W 004°29'0 0.0
2019-Oct-02 01:00N 48°23' W 004°29'0 0.0
2019-Oct-02 00:30N 48°23' W 004°29'0 0.0
2019-Oct-02 00:00N 48°23' W 004°29'0 0.0
2019-Oct-01 23:30N 48°23' W 004°29'0 0.0
2019-Oct-01 23:00N 48°23' W 004°29'0 0.0
2019-Oct-01 22:30N 48°23' W 004°29'0 0.0
2019-Oct-01 22:00N 48°23' W 004°29'0 0.0
2019-Oct-01 21:30N 48°23' W 004°29'0 0.0
2019-Oct-01 20:59N 48°23' W 004°29'0 0.0
2019-Oct-01 20:29N 48°23' W 004°29'0 0.0
2019-Oct-01 19:59N 48°23' W 004°29'0 0.0
2019-Oct-01 19:29N 48°23' W 004°29'0 0.0
2019-Oct-01 18:59N 48°23' W 004°29'0 0.0
2019-Oct-01 18:29N 48°23' W 004°29'0 0.0
2019-Oct-01 17:59N 48°23' W 004°29'0 0.0
2019-Oct-01 17:29N 48°23' W 004°29'0 0.0
2019-Oct-01 16:59N 48°23' W 004°29'0 0.0
2019-Oct-01 16:29N 48°23' W 004°29'0 0.0
2019-Oct-01 15:59N 48°23' W 004°29'0 0.0
2019-Oct-01 15:29N 48°23' W 004°29'0 0.0
2019-Oct-01 14:59N 48°23' W 004°29'0 0.0
2019-Oct-01 14:29N 48°23' W 004°29'0 0.0
2019-Oct-01 13:59N 48°23' W 004°29'0 0.0
2019-Oct-01 13:29N 48°23' W 004°29'0 0.0
2019-Oct-01 12:59N 48°23' W 004°29'0 0.0
2019-Oct-01 12:29N 48°23' W 004°29'0 0.0
2019-Oct-01 11:59N 48°23' W 004°29'0 0.0
2019-Oct-01 11:29N 48°23' W 004°29'0 0.0
2019-Oct-01 10:59N 48°23' W 004°29'0 0.0
2019-Oct-01 10:29N 48°23' W 004°29'0 0.0
2019-Oct-01 09:59N 48°23' W 004°29'0 0.0
2019-Oct-01 09:29N 48°23' W 004°29'0 0.0
2019-Oct-01 08:59N 48°23' W 004°29'0 0.0
2019-Oct-01 08:29N 48°23' W 004°29'0 0.0
2019-Oct-01 07:59N 48°23' W 004°29'0 0.0
2019-Oct-01 07:29N 48°23' W 004°29'0 0.0
2019-Oct-01 06:59N 48°23' W 004°29'0 0.0
2019-Oct-01 06:29N 48°23' W 004°29'0 0.0
2019-Oct-01 05:59N 48°23' W 004°29'0 0.0
2019-Oct-01 05:29N 48°23' W 004°29'0 0.0
2019-Oct-01 04:59N 48°23' W 004°29'0 0.0
2019-Oct-01 04:29N 48°23' W 004°29'0 0.0
2019-Oct-01 03:59N 48°23' W 004°29'0 0.0
2019-Oct-01 03:29N 48°23' W 004°29'0 0.0
2019-Oct-01 02:59N 48°23' W 004°29'0 0.0
2019-Oct-01 02:29N 48°23' W 004°29'0 0.0
2019-Oct-01 01:59N 48°23' W 004°29'0 0.0
2019-Oct-01 01:29N 48°23' W 004°29'0 0.0
2019-Oct-01 00:59N 48°23' W 004°29'0 0.0
2019-Oct-01 00:29N 48°23' W 004°29'0 0.0
2019-Sep-30 23:59N 48°23' W 004°29'0 0.0
2019-Sep-30 23:29N 48°23' W 004°29'0 0.0
2019-Sep-30 22:59N 48°23' W 004°29'0 0.0
2019-Sep-30 22:29N 48°23' W 004°29'0 0.0
2019-Sep-30 21:59N 48°23' W 004°29'0 0.0
2019-Sep-30 21:29N 48°23' W 004°29'0 0.0
2019-Sep-30 20:59N 48°23' W 004°29'0 0.0
2019-Sep-30 20:29N 48°23' W 004°29'0 0.0
2019-Sep-30 19:59N 48°23' W 004°29'0 0.0
2019-Sep-30 19:29N 48°23' W 004°29'0 0.0
2019-Sep-30 18:59N 48°23' W 004°29'0 0.0
2019-Sep-30 18:29N 48°23' W 004°29'0 0.0
2019-Sep-30 17:59N 48°23' W 004°29'0 0.0
2019-Sep-30 17:29N 48°23' W 004°29'0 0.0
2019-Sep-30 16:59N 48°23' W 004°29'0 0.0
2019-Sep-30 16:29N 48°23' W 004°29'0 0.0
2019-Sep-30 15:59N 48°23' W 004°29'0 0.0
2019-Sep-30 15:29N 48°23' W 004°29'0 0.0
2019-Sep-30 14:59N 48°23' W 004°29'0 0.0
2019-Sep-30 14:29N 48°23' W 004°29'0 0.0
2019-Sep-30 13:59N 48°23' W 004°29'0 0.0
2019-Sep-30 13:29N 48°23' W 004°29'0 0.0
2019-Sep-30 12:59N 48°23' W 004°29'0 0.0
2019-Sep-30 12:29N 48°23' W 004°29'0 0.0
2019-Sep-30 11:59N 48°23' W 004°29'0 0.0
2019-Sep-30 11:29N 48°23' W 004°29'0 0.0
2019-Sep-30 10:59N 48°23' W 004°29'0 0.0
2019-Sep-30 10:29N 48°23' W 004°29'0 0.0
2019-Sep-30 09:59N 48°23' W 004°29'0 0.0
2019-Sep-30 09:29N 48°23' W 004°29'0 0.0
2019-Sep-30 08:59N 48°23' W 004°29'0 0.0
2019-Sep-30 08:29N 48°23' W 004°29'0 0.0
2019-Sep-30 07:59N 48°23' W 004°29'0 0.0
2019-Sep-30 07:29N 48°23' W 004°29'0 0.0
2019-Sep-30 06:59N 48°23' W 004°29'0 0.0
2019-Sep-30 06:29N 48°23' W 004°29'0 0.0
2019-Sep-30 05:59N 48°23' W 004°29'0 0.0
2019-Sep-30 05:29N 48°23' W 004°29'0 0.0
2019-Sep-30 04:59N 48°23' W 004°29'0 0.0
2019-Sep-30 04:29N 48°23' W 004°29'0 0.0
2019-Sep-30 03:59N 48°23' W 004°29'0 0.0
2019-Sep-30 03:29N 48°23' W 004°29'0 0.0
2019-Sep-30 02:59N 48°23' W 004°29'0 0.0
2019-Sep-30 02:29N 48°23' W 004°29'0 0.0
2019-Sep-30 01:59N 48°23' W 004°29'0 0.0
2019-Sep-30 01:29N 48°23' W 004°29'0 0.0
2019-Sep-30 00:59N 48°23' W 004°29'0 0.0
2019-Sep-30 00:29N 48°23' W 004°29'0 0.0
2019-Sep-29 23:59N 48°23' W 004°29'0 0.0
2019-Sep-29 23:29N 48°23' W 004°29'0 0.0
2019-Sep-29 22:59N 48°23' W 004°29'0 0.0
2019-Sep-29 22:29N 48°23' W 004°29'0 0.0
2019-Sep-29 21:59N 48°23' W 004°29'0 0.0
2019-Sep-29 21:29N 48°23' W 004°29'0 0.0
2019-Sep-29 20:59N 48°23' W 004°29'0 0.0
2019-Sep-29 20:28N 48°23' W 004°29'0 0.0
2019-Sep-29 19:58N 48°23' W 004°29'0 0.0
2019-Sep-29 19:28N 48°23' W 004°29'0 0.0
2019-Sep-29 18:58N 48°23' W 004°29'0 0.0
2019-Sep-29 18:28N 48°23' W 004°29'0 0.0
2019-Sep-29 17:58N 48°23' W 004°29'0 0.0
2019-Sep-29 17:28N 48°23' W 004°29'0 0.0
2019-Sep-29 16:58N 48°23' W 004°29'0 0.0
2019-Sep-29 16:28N 48°23' W 004°29'0 0.0
2019-Sep-29 15:58N 48°23' W 004°29'0 0.0
2019-Sep-29 15:28N 48°23' W 004°29'0 0.0
2019-Sep-29 14:58N 48°23' W 004°29'0 0.0
2019-Sep-29 14:28N 48°23' W 004°29'0 0.0
2019-Sep-29 13:58N 48°23' W 004°29'0 0.0
2019-Sep-29 13:28N 48°23' W 004°29'0 0.0
2019-Sep-29 12:58N 48°23' W 004°29'0 0.0
2019-Sep-29 12:28N 48°23' W 004°29'0 0.0
2019-Sep-29 11:58N 48°23' W 004°29'0 0.0
2019-Sep-29 11:28N 48°23' W 004°29'0 0.0
2019-Sep-29 10:58N 48°23' W 004°29'0 0.0
2019-Sep-29 10:28N 48°23' W 004°29'0 0.0
2019-Sep-29 09:58N 48°23' W 004°29'0 0.0
2019-Sep-29 09:28N 48°23' W 004°29'0 0.0
2019-Sep-29 08:58N 48°23' W 004°29'0 0.0
2019-Sep-29 08:28N 48°23' W 004°29'0 0.0
2019-Sep-29 07:58N 48°23' W 004°29'0 0.0
2019-Sep-29 07:28N 48°23' W 004°29'0 0.0
2019-Sep-29 06:58N 48°23' W 004°29'0 0.0
2019-Sep-29 06:28N 48°23' W 004°29'0 0.0
2019-Sep-29 05:58N 48°23' W 004°29'0 0.0
2019-Sep-29 05:28N 48°23' W 004°29'0 0.0
2019-Sep-29 04:58N 48°23' W 004°29'0 0.0
2019-Sep-29 04:28N 48°23' W 004°29'0 0.0
2019-Sep-29 03:58N 48°23' W 004°29'0 0.0
2019-Sep-29 03:28N 48°23' W 004°29'0 0.0
2019-Sep-29 02:58N 48°23' W 004°29'0 0.0
2019-Sep-29 02:28N 48°23' W 004°29'0 0.0
2019-Sep-29 01:58N 48°23' W 004°29'0 0.0
2019-Sep-29 01:28N 48°23' W 004°29'0 0.0
2019-Sep-29 00:58N 48°23' W 004°29'0 0.0
2019-Sep-29 00:28N 48°23' W 004°29'0 0.0
2019-Sep-28 23:58N 48°23' W 004°29'0 0.0
2019-Sep-28 23:28N 48°23' W 004°29'0 0.0
2019-Sep-28 22:58N 48°23' W 004°29'0 0.0
2019-Sep-28 22:28N 48°23' W 004°29'0 0.0
2019-Sep-28 21:58N 48°23' W 004°29'0 0.0
2019-Sep-28 21:28N 48°23' W 004°29'0 0.0
2019-Sep-28 20:58N 48°23' W 004°29'0 0.0
2019-Sep-28 20:28N 48°23' W 004°29'0 0.0
2019-Sep-28 19:58N 48°23' W 004°29'0 0.0
2019-Sep-28 19:28N 48°23' W 004°29'0 0.0
2019-Sep-28 18:58N 48°23' W 004°29'0 0.0
2019-Sep-28 18:28N 48°23' W 004°29'0 0.0
2019-Sep-28 17:58N 48°23' W 004°29'  
Track history (hours):
 
Tides and Currents Weather Stations Pressure Air Temp Water Temp Dewpoint Dewpoint Depression Visibility Wind Speed Wind Dir Waves Ship Positions

Oceanographic research ship Thalia (France)

Detailed information on ship capabilities available from University of Delaware's Ocean Information Center.

Last reported at 2019-Oct-08 17:35 UTC. Time now 2019-Oct-14 10:20 UTC.
Position N 47°52' W 003°55'.

Length 25 m; beam 7 m.

Type: Fishing. MMSI: 227270000.

Date/timePositionNaut miles runAvg speedWind from/ knotsBaromVisibWave heightAir tempDewpointWater temp
2019-Oct-08 17:35N 47°52' W 003°55'0 6.0
2019-Oct-08 17:31N 47°51' W 003°56'14 8.6
2019-Oct-08 15:50N 47°40' W 003°42'3 9.5
2019-Oct-08 15:30N 47°38' W 003°38'5 9.5
2019-Oct-08 15:00N 47°36' W 003°32'5 9.6
2019-Oct-08 14:30N 47°33' W 003°27'5 9.5
2019-Oct-08 14:01N 47°30' W 003°21'5 9.5
2019-Oct-08 13:30N 47°27' W 003°15'5 9.5
2019-Oct-08 13:01N 47°25' W 003°09'5 9.6
2019-Oct-08 12:31N 47°22' W 003°03'5 9.7
2019-Oct-08 12:01N 47°20' W 002°57'5 9.7
2019-Oct-08 11:31N 47°18' W 002°50'5 9.8
2019-Oct-08 11:01N 47°19' W 002°43'5 9.5
2019-Oct-08 10:31N 47°20' W 002°36'4 7.1
2019-Oct-08 10:01N 47°21' W 002°31'0 0.0
2019-Oct-07 16:34N 47°21' W 002°31'0 0.0
2019-Oct-07 16:22N 47°21' W 002°31'0 0.0
2019-Oct-07 15:43N 47°21' W 002°31'0 0.0
2019-Oct-07 15:28N 47°21' W 002°31'0 0.0
2019-Oct-07 14:58N 47°21' W 002°31'0 0.0
2019-Oct-07 14:22N 47°21' W 002°31'0 0.0
2019-Oct-07 14:00N 47°21' W 002°31'0 0.0
2019-Oct-07 13:29N 47°21' W 002°31'1 1.3
2019-Oct-07 13:01N 47°20' W 002°32'2 4.5
2019-Oct-07 12:31N 47°22' W 002°35'2 4.3
2019-Oct-07 12:00N 47°23' W 002°37'2 4.4
2019-Oct-07 11:29N 47°25' W 002°38'2 4.3
2019-Oct-07 10:55N 47°28' W 002°39'0 0.6
2019-Oct-07 10:30N 47°28' W 002°39'0 0.3
2019-Oct-07 10:00N 47°28' W 002°39'0 0.2
2019-Oct-07 09:30N 47°28' W 002°40'0 0.4
2019-Oct-07 09:00N 47°27' W 002°39'0 0.4
2019-Oct-07 08:30N 47°28' W 002°39'1 2.2
2019-Oct-07 08:00N 47°27' W 002°39'5 9.2
2019-Oct-07 07:30N 47°22' W 002°36'4 7.6
2019-Oct-07 07:00N 47°21' W 002°31'0 0.0
2019-Oct-07 02:59N 47°21' W 002°31'0 0.0
2019-Oct-07 01:53N 47°21' W 002°31'0 0.0
2019-Oct-07 01:26N 47°21' W 002°31'0 0.0
2019-Oct-07 00:56N 47°21' W 002°31'0 0.0
2019-Oct-07 00:29N 47°21' W 002°31'0 0.0
2019-Oct-06 23:56N 47°21' W 002°31'0 0.0
2019-Oct-06 23:29N 47°21' W 002°31'0 0.0
2019-Oct-06 22:59N 47°21' W 002°31'0 0.0
2019-Oct-06 22:29N 47°21' W 002°31'0 0.0
2019-Oct-06 21:29N 47°21' W 002°31'0 0.0
2019-Oct-06 20:53N 47°21' W 002°31'0 0.0
2019-Oct-06 19:53N 47°21' W 002°31'0 0.0
2019-Oct-06 17:59N 47°21' W 002°31'0 0.6
2019-Oct-06 17:30N 47°21' W 002°31'4 8.1
2019-Oct-06 17:01N 47°20' W 002°37'510.4
2019-Oct-06 16:31N 47°19' W 002°44'510.0
2019-Oct-06 16:01N 47°18' W 002°52'510.2
2019-Oct-06 15:31N 47°20' W 002°59'510.2
2019-Oct-06 15:01N 47°22' W 003°06'5 9.8
2019-Oct-06 14:30N 47°24' W 003°12'5 9.7
2019-Oct-06 14:01N 47°26' W 003°19'5 9.8
2019-Oct-06 13:31N 47°28' W 003°26'5 9.8
2019-Oct-06 13:00N 47°30' W 003°32'5 9.9
2019-Oct-06 12:31N 47°32' W 003°39'5 9.9
2019-Oct-06 12:00N 47°34' W 003°46'2410.2
2019-Oct-06 09:40N 47°44' W 004°17'210.5
2019-Oct-06 09:30N 47°45' W 004°20'510.3
2019-Oct-06 09:00N 47°48' W 004°26'510.1
2019-Oct-06 08:30N 47°52' W 004°31'510.2
2019-Oct-06 08:00N 47°56' W 004°36'510.0
2019-Oct-06 07:31N 47°59' W 004°42'5 9.1
2019-Oct-06 07:00N 48°03' W 004°46'4 8.8
2019-Oct-06 06:30N 48°07' W 004°44'5 9.8
2019-Oct-06 06:00N 48°12' W 004°43'5 9.4
2019-Oct-06 05:30N 48°16' W 004°40'5 9.2
2019-Oct-06 05:00N 48°19' W 004°35'4 7.7
2019-Oct-06 04:30N 48°22' W 004°31'2 3.7
2019-Oct-06 04:00N 48°23' W 004°29'0 0.0
2019-Oct-06 03:30N 48°23' W 004°29'0 0.0
2019-Oct-06 03:00N 48°23' W 004°29'0 0.0
2019-Oct-06 02:30N 48°23' W 004°29'0 0.0
2019-Oct-06 02:00N 48°23' W 004°29'0 0.0
2019-Oct-06 01:30N 48°23' W 004°29'0 0.0
2019-Oct-06 01:00N 48°23' W 004°29'0 0.0
2019-Oct-06 00:30N 48°23' W 004°29'0 0.0
2019-Oct-06 00:00N 48°23' W 004°29'0 0.0
2019-Oct-05 23:30N 48°23' W 004°29'0 0.0
2019-Oct-05 23:00N 48°23' W 004°29'0 0.0
2019-Oct-05 22:30N 48°23' W 004°29'0 0.0
2019-Oct-05 22:00N 48°23' W 004°29'0 0.0
2019-Oct-05 21:30N 48°23' W 004°29'0 0.0
2019-Oct-05 21:00N 48°23' W 004°29'0 0.0
2019-Oct-05 20:30N 48°23' W 004°29'0 0.0
2019-Oct-05 20:00N 48°23' W 004°29'0 0.0
2019-Oct-05 19:30N 48°23' W 004°29'0 0.0
2019-Oct-05 19:00N 48°23' W 004°29'0 0.0
2019-Oct-05 18:30N 48°23' W 004°29'0 0.0
2019-Oct-05 18:00N 48°23' W 004°29'0 0.0
2019-Oct-05 17:30N 48°23' W 004°29'0 0.0
2019-Oct-05 17:00N 48°23' W 004°29'0 0.0
2019-Oct-05 16:30N 48°23' W 004°29'0 0.0
2019-Oct-05 16:00N 48°23' W 004°29'0 0.0
2019-Oct-05 15:30N 48°23' W 004°29'0 0.0
2019-Oct-05 15:00N 48°23' W 004°29'0 0.0
2019-Oct-05 14:30N 48°23' W 004°29'0 0.0
2019-Oct-05 14:00N 48°23' W 004°29'0 0.0
2019-Oct-05 13:30N 48°23' W 004°29'0 0.0
2019-Oct-05 13:00N 48°23' W 004°29'0 0.0
2019-Oct-05 12:30N 48°23' W 004°29'0 0.0
2019-Oct-05 12:00N 48°23' W 004°29'0 0.0
2019-Oct-05 11:30N 48°23' W 004°29'0 0.0
2019-Oct-05 11:00N 48°23' W 004°29'0 0.0
2019-Oct-05 10:30N 48°23' W 004°29'0 0.0
2019-Oct-05 10:00N 48°23' W 004°29'0 0.0
2019-Oct-05 09:30N 48°23' W 004°29'0 0.0
2019-Oct-05 09:00N 48°23' W 004°29'0 0.0
2019-Oct-05 08:30N 48°23' W 004°29'0 0.0
2019-Oct-05 08:00N 48°23' W 004°29'0 0.0
2019-Oct-05 07:30N 48°23' W 004°29'0 0.0
2019-Oct-05 07:00N 48°23' W 004°29'0 0.0
2019-Oct-05 06:30N 48°23' W 004°29'0 0.0
2019-Oct-05 06:00N 48°23' W 004°29'0 0.0
2019-Oct-05 05:30N 48°23' W 004°29'0 0.0
2019-Oct-05 05:00N 48°23' W 004°29'0 0.0
2019-Oct-05 04:30N 48°23' W 004°29'0 0.0
2019-Oct-05 04:00N 48°23' W 004°29'0 0.0
2019-Oct-05 03:30N 48°23' W 004°29'0 0.0
2019-Oct-05 03:00N 48°23' W 004°29'0 0.0
2019-Oct-05 02:30N 48°23' W 004°29'0 0.0
2019-Oct-05 02:00N 48°23' W 004°29'0 0.0
2019-Oct-05 01:30N 48°23' W 004°29'0 0.0
2019-Oct-05 01:00N 48°23' W 004°29'0 0.0
2019-Oct-05 00:30N 48°23' W 004°29'0 0.0
2019-Oct-05 00:00N 48°23' W 004°29'0 0.0
2019-Oct-04 23:30N 48°23' W 004°29'0 0.0
2019-Oct-04 23:00N 48°23' W 004°29'0 0.0
2019-Oct-04 22:30N 48°23' W 004°29'0 0.0
2019-Oct-04 22:00N 48°23' W 004°29'0 0.0
2019-Oct-04 21:30N 48°23' W 004°29'0 0.0
2019-Oct-04 21:00N 48°23' W 004°29'0 0.0
2019-Oct-04 20:30N 48°23' W 004°29'0 0.0
2019-Oct-04 20:00N 48°23' W 004°29'0 0.0
2019-Oct-04 19:30N 48°23' W 004°29'0 0.0
2019-Oct-04 19:00N 48°23' W 004°29'0 0.0
2019-Oct-04 18:30N 48°23' W 004°29'0 0.0
2019-Oct-04 18:00N 48°23' W 004°29'0 0.0
2019-Oct-04 17:30N 48°23' W 004°29'0 0.0
2019-Oct-04 17:00N 48°23' W 004°29'0 0.0
2019-Oct-04 16:30N 48°23' W 004°29'0 0.0
2019-Oct-04 16:00N 48°23' W 004°29'0 0.0
2019-Oct-04 15:30N 48°23' W 004°29'0 0.0
2019-Oct-04 15:00N 48°23' W 004°29'0 0.0
2019-Oct-04 14:30N 48°23' W 004°29'0 0.0
2019-Oct-04 14:00N 48°23' W 004°29'0 0.0
2019-Oct-04 13:30N 48°23' W 004°29'0 0.0
2019-Oct-04 13:00N 48°23' W 004°29'0 0.0
2019-Oct-04 12:30N 48°23' W 004°29'0 0.0
2019-Oct-04 12:00N 48°23' W 004°29'0 0.0
2019-Oct-04 11:30N 48°23' W 004°29'0 0.0
2019-Oct-04 11:00N 48°23' W 004°29'0 0.0
2019-Oct-04 10:30N 48°23' W 004°29'0 0.0
2019-Oct-04 10:00N 48°23' W 004°29'0 0.0
2019-Oct-04 09:30N 48°23' W 004°29'0 0.0
2019-Oct-04 09:00N 48°23' W 004°29'0 0.0
2019-Oct-04 08:30N 48°23' W 004°29'0 0.0
2019-Oct-04 08:00N 48°23' W 004°29'0 0.0
2019-Oct-04 07:30N 48°23' W 004°29'0 0.0
2019-Oct-04 07:00N 48°23' W 004°29'0 0.0
2019-Oct-04 06:30N 48°23' W 004°29'0 0.0
2019-Oct-04 06:00N 48°23' W 004°29'0 0.0
2019-Oct-04 05:30N 48°23' W 004°29'0 0.0
2019-Oct-04 05:00N 48°23' W 004°29'0 0.0
2019-Oct-04 04:30N 48°23' W 004°29'0 0.0
2019-Oct-04 04:00N 48°23' W 004°29'0 0.0
2019-Oct-04 03:30N 48°23' W 004°29'0 0.0
2019-Oct-04 03:00N 48°23' W 004°29'0 0.0
2019-Oct-04 02:30N 48°23' W 004°29'0 0.0
2019-Oct-04 02:00N 48°23' W 004°29'0 0.0
2019-Oct-04 01:30N 48°23' W 004°29'0 0.0
2019-Oct-04 01:00N 48°23' W 004°29'0 0.0
2019-Oct-04 00:30N 48°23' W 004°29'0 0.0
2019-Oct-04 00:00N 48°23' W 004°29'0 0.0
2019-Oct-03 23:30N 48°23' W 004°29'0 0.0
2019-Oct-03 23:00N 48°23' W 004°29'0 0.0
2019-Oct-03 22:30N 48°23' W 004°29'0 0.0
2019-Oct-03 22:00N 48°23' W 004°29'0 0.0
2019-Oct-03 21:30N 48°23' W 004°29'0 0.0
2019-Oct-03 21:00N 48°23' W 004°29'0 0.0
2019-Oct-03 20:30N 48°23' W 004°29'0 0.0
2019-Oct-03 20:00N 48°23' W 004°29'0 0.0
2019-Oct-03 19:30N 48°23' W 004°29'0 0.0
2019-Oct-03 19:00N 48°23' W 004°29'0 0.0
2019-Oct-03 18:30N 48°23' W 004°29'0 0.0
2019-Oct-03 18:00N 48°23' W 004°29'0 0.0
2019-Oct-03 17:30N 48°23' W 004°29'0 0.0
2019-Oct-03 17:00N 48°23' W 004°29'0 0.0
2019-Oct-03 16:30N 48°23' W 004°29'0 0.0
2019-Oct-03 16:00N 48°23' W 004°29'0 0.0
2019-Oct-03 15:30N 48°23' W 004°29'0 0.0
2019-Oct-03 15:00N 48°23' W 004°29'0 0.0
2019-Oct-03 14:30N 48°23' W 004°29'0 0.0
2019-Oct-03 14:00N 48°23' W 004°29'0 0.0
2019-Oct-03 13:30N 48°23' W 004°29'0 0.0
2019-Oct-03 13:00N 48°23' W 004°29'0 0.0
2019-Oct-03 12:30N 48°23' W 004°29'0 0.0
2019-Oct-03 12:00N 48°23' W 004°29'0 0.0
2019-Oct-03 11:30N 48°23' W 004°29'0 0.0
2019-Oct-03 11:00N 48°23' W 004°29'0 0.0
2019-Oct-03 10:30N 48°23' W 004°29'0 0.0
2019-Oct-03 10:00N 48°23' W 004°29'0 0.0
2019-Oct-03 09:30N 48°23' W 004°29'0 0.0
2019-Oct-03 09:00N 48°23' W 004°29'0 0.0
2019-Oct-03 08:30N 48°23' W 004°29'0 0.0
2019-Oct-03 08:00N 48°23' W 004°29'0 0.0
2019-Oct-03 07:30N 48°23' W 004°29'0 0.0
2019-Oct-03 07:00N 48°23' W 004°29'0 0.0
2019-Oct-03 06:30N 48°23' W 004°29'0 0.0
2019-Oct-03 06:00N 48°23' W 004°29'0 0.0
2019-Oct-03 05:30N 48°23' W 004°29'0 0.0
2019-Oct-03 05:00N 48°23' W 004°29'0 0.0
2019-Oct-03 04:30N 48°23' W 004°29'0 0.0
2019-Oct-03 04:00N 48°23' W 004°29'0 0.0
2019-Oct-03 03:30N 48°23' W 004°29'0 0.0
2019-Oct-03 03:00N 48°23' W 004°29'0 0.0
2019-Oct-03 02:30N 48°23' W 004°29'0 0.0
2019-Oct-03 02:00N 48°23' W 004°29'0 0.0
2019-Oct-03 01:30N 48°23' W 004°29'0 0.0
2019-Oct-03 01:00N 48°23' W 004°29'0 0.0
2019-Oct-03 00:30N 48°23' W 004°29'0 0.0
2019-Oct-03 00:00N 48°23' W 004°29'0 0.0
2019-Oct-02 23:30N 48°23' W 004°29'0 0.0
2019-Oct-02 23:00N 48°23' W 004°29'0 0.0
2019-Oct-02 22:30N 48°23' W 004°29'0 0.0
2019-Oct-02 22:00N 48°23' W 004°29'0 0.0
2019-Oct-02 21:30N 48°23' W 004°29'0 0.0
2019-Oct-02 21:00N 48°23' W 004°29'0 0.0
2019-Oct-02 20:30N 48°23' W 004°29'0 0.0
2019-Oct-02 20:00N 48°23' W 004°29'0 0.0
2019-Oct-02 19:30N 48°23' W 004°29'0 0.0
2019-Oct-02 19:00N 48°23' W 004°29'0 0.0
2019-Oct-02 18:30N 48°23' W 004°29'0 0.0
2019-Oct-02 18:00N 48°23' W 004°29'0 0.0
2019-Oct-02 17:30N 48°23' W 004°29'0 0.0
2019-Oct-02 17:00N 48°23' W 004°29'0 0.0
2019-Oct-02 16:30N 48°23' W 004°29'0 0.0
2019-Oct-02 16:00N 48°23' W 004°29'0 0.0
2019-Oct-02 15:30N 48°23' W 004°29'0 0.0
2019-Oct-02 14:57N 48°23' W 004°29'0 0.0
2019-Oct-02 14:30N 48°23' W 004°29'0 0.0
2019-Oct-02 14:00N 48°23' W 004°29'0 0.0
2019-Oct-02 13:30N 48°23' W 004°29'0 0.0
2019-Oct-02 13:00N 48°23' W 004°29'0 0.0
2019-Oct-02 12:30N 48°23' W 004°29'0 0.0
2019-Oct-02 12:00N 48°23' W 004°29'0 0.0
2019-Oct-02 11:30N 48°23' W 004°29'0 0.0
2019-Oct-02 11:00N 48°23' W 004°29'0 0.0
2019-Oct-02 10:30N 48°23' W 004°29'0 0.0
2019-Oct-02 10:00N 48°23' W 004°29'0 0.0
2019-Oct-02 09:30N 48°23' W 004°29'0 0.0
2019-Oct-02 08:57N 48°23' W 004°29'0 0.0
2019-Oct-02 08:27N 48°23' W 004°29'0 0.0
2019-Oct-02 08:00N 48°23' W 004°29'0 0.0
2019-Oct-02 07:27N 48°23' W 004°29'0 0.0
2019-Oct-02 07:00N 48°23' W 004°29'0 0.0
2019-Oct-02 06:30N 48°23' W 004°29'0 0.0
2019-Oct-02 06:00N 48°23' W 004°29'0 0.0
2019-Oct-02 05:30N 48°23' W 004°29'0 0.0
2019-Oct-02 05:00N 48°23' W 004°29'0 0.0
2019-Oct-02 04:30N 48°23' W 004°29'0 0.0
2019-Oct-02 04:00N 48°23' W 004°29'0 0.0
2019-Oct-02 03:30N 48°23' W 004°29'0 0.0
2019-Oct-02 03:00N 48°23' W 004°29'0 0.0
2019-Oct-02 02:27N 48°23' W 004°29'0 0.0
2019-Oct-02 01:57N 48°23' W 004°29'0 0.0
2019-Oct-02 01:30N 48°23' W 004°29'0 0.0
2019-Oct-02 01:00N 48°23' W 004°29'0 0.0
2019-Oct-02 00:30N 48°23' W 004°29'0 0.0
2019-Oct-02 00:00N 48°23' W 004°29'0 0.0
2019-Oct-01 23:30N 48°23' W 004°29'0 0.0
2019-Oct-01 23:00N 48°23' W 004°29'0 0.0
2019-Oct-01 22:30N 48°23' W 004°29'0 0.0
2019-Oct-01 22:00N 48°23' W 004°29'0 0.0
2019-Oct-01 21:30N 48°23' W 004°29'0 0.0
2019-Oct-01 20:59N 48°23' W 004°29'0 0.0
2019-Oct-01 20:29N 48°23' W 004°29'0 0.0
2019-Oct-01 19:59N 48°23' W 004°29'0 0.0
2019-Oct-01 19:29N 48°23' W 004°29'0 0.0
2019-Oct-01 18:59N 48°23' W 004°29'0 0.0
2019-Oct-01 18:29N 48°23' W 004°29'0 0.0
2019-Oct-01 17:59N 48°23' W 004°29'0 0.0
2019-Oct-01 17:29N 48°23' W 004°29'0 0.0
2019-Oct-01 16:59N 48°23' W 004°29'0 0.0
2019-Oct-01 16:29N 48°23' W 004°29'0 0.0
2019-Oct-01 15:59N 48°23' W 004°29'0 0.0
2019-Oct-01 15:29N 48°23' W 004°29'0 0.0
2019-Oct-01 14:59N 48°23' W 004°29'0 0.0
2019-Oct-01 14:29N 48°23' W 004°29'0 0.0
2019-Oct-01 13:59N 48°23' W 004°29'0 0.0
2019-Oct-01 13:29N 48°23' W 004°29'0 0.0
2019-Oct-01 12:59N 48°23' W 004°29'0 0.0
2019-Oct-01 12:29N 48°23' W 004°29'0 0.0
2019-Oct-01 11:59N 48°23' W 004°29'0 0.0
2019-Oct-01 11:29N 48°23' W 004°29'0 0.0
2019-Oct-01 10:59N 48°23' W 004°29'0 0.0
2019-Oct-01 10:29N 48°23' W 004°29'0 0.0
2019-Oct-01 09:59N 48°23' W 004°29'0 0.0
2019-Oct-01 09:29N 48°23' W 004°29'0 0.0
2019-Oct-01 08:59N 48°23' W 004°29'0 0.0
2019-Oct-01 08:29N 48°23' W 004°29'0 0.0
2019-Oct-01 07:59N 48°23' W 004°29'0 0.0
2019-Oct-01 07:29N 48°23' W 004°29'0 0.0
2019-Oct-01 06:59N 48°23' W 004°29'0 0.0
2019-Oct-01 06:29N 48°23' W 004°29'0 0.0
2019-Oct-01 05:59N 48°23' W 004°29'0 0.0
2019-Oct-01 05:29N 48°23' W 004°29'0 0.0
2019-Oct-01 04:59N 48°23' W 004°29'0 0.0
2019-Oct-01 04:29N 48°23' W 004°29'0 0.0
2019-Oct-01 03:59N 48°23' W 004°29'0 0.0
2019-Oct-01 03:29N 48°23' W 004°29'0 0.0
2019-Oct-01 02:59N 48°23' W 004°29'0 0.0
2019-Oct-01 02:29N 48°23' W 004°29'0 0.0
2019-Oct-01 01:59N 48°23' W 004°29'0 0.0
2019-Oct-01 01:29N 48°23' W 004°29'0 0.0
2019-Oct-01 00:59N 48°23' W 004°29'0 0.0
2019-Oct-01 00:29N 48°23' W 004°29'0 0.0
2019-Sep-30 23:59N 48°23' W 004°29'0 0.0
2019-Sep-30 23:29N 48°23' W 004°29'0 0.0
2019-Sep-30 22:59N 48°23' W 004°29'0 0.0
2019-Sep-30 22:29N 48°23' W 004°29'0 0.0
2019-Sep-30 21:59N 48°23' W 004°29'0 0.0
2019-Sep-30 21:29N 48°23' W 004°29'0 0.0
2019-Sep-30 20:59N 48°23' W 004°29'0 0.0
2019-Sep-30 20:29N 48°23' W 004°29'0 0.0
2019-Sep-30 19:59N 48°23' W 004°29'0 0.0
2019-Sep-30 19:29N 48°23' W 004°29'0 0.0
2019-Sep-30 18:59N 48°23' W 004°29'0 0.0
2019-Sep-30 18:29N 48°23' W 004°29'0 0.0
2019-Sep-30 17:59N 48°23' W 004°29'0 0.0
2019-Sep-30 17:29N 48°23' W 004°29'0 0.0
2019-Sep-30 16:59N 48°23' W 004°29'0 0.0
2019-Sep-30 16:29N 48°23' W 004°29'0 0.0
2019-Sep-30 15:59N 48°23' W 004°29'0 0.0
2019-Sep-30 15:29N 48°23' W 004°29'0 0.0
2019-Sep-30 14:59N 48°23' W 004°29'0 0.0
2019-Sep-30 14:29N 48°23' W 004°29'0 0.0
2019-Sep-30 13:59N 48°23' W 004°29'0 0.0
2019-Sep-30 13:29N 48°23' W 004°29'0 0.0
2019-Sep-30 12:59N 48°23' W 004°29'0 0.0
2019-Sep-30 12:29N 48°23' W 004°29'0 0.0
2019-Sep-30 11:59N 48°23' W 004°29'0 0.0
2019-Sep-30 11:29N 48°23' W 004°29'0 0.0
2019-Sep-30 10:59N 48°23' W 004°29'0 0.0
2019-Sep-30 10:29N 48°23' W 004°29'0 0.0
2019-Sep-30 09:59N 48°23' W 004°29'0 0.0
2019-Sep-30 09:29N 48°23' W 004°29'0 0.0
2019-Sep-30 08:59N 48°23' W 004°29'0 0.0
2019-Sep-30 08:29N 48°23' W 004°29'0 0.0
2019-Sep-30 07:59N 48°23' W 004°29'0 0.0
2019-Sep-30 07:29N 48°23' W 004°29'0 0.0
2019-Sep-30 06:59N 48°23' W 004°29'0 0.0
2019-Sep-30 06:29N 48°23' W 004°29'0 0.0
2019-Sep-30 05:59N 48°23' W 004°29'0 0.0
2019-Sep-30 05:29N 48°23' W 004°29'0 0.0
2019-Sep-30 04:59N 48°23' W 004°29'0 0.0
2019-Sep-30 04:29N 48°23' W 004°29'0 0.0
2019-Sep-30 03:59N 48°23' W 004°29'0 0.0
2019-Sep-30 03:29N 48°23' W 004°29'0 0.0
2019-Sep-30 02:59N 48°23' W 004°29'0 0.0
2019-Sep-30 02:29N 48°23' W 004°29'0 0.0
2019-Sep-30 01:59N 48°23' W 004°29'0 0.0
2019-Sep-30 01:29N 48°23' W 004°29'0 0.0
2019-Sep-30 00:59N 48°23' W 004°29'0 0.0
2019-Sep-30 00:29N 48°23' W 004°29'0 0.0
2019-Sep-29 23:59N 48°23' W 004°29'0 0.0
2019-Sep-29 23:29N 48°23' W 004°29'0 0.0
2019-Sep-29 22:59N 48°23' W 004°29'0 0.0
2019-Sep-29 22:29N 48°23' W 004°29'0 0.0
2019-Sep-29 21:59N 48°23' W 004°29'0 0.0
2019-Sep-29 21:29N 48°23' W 004°29'0 0.0
2019-Sep-29 20:59N 48°23' W 004°29'0 0.0
2019-Sep-29 20:28N 48°23' W 004°29'0 0.0
2019-Sep-29 19:58N 48°23' W 004°29'0 0.0
2019-Sep-29 19:28N 48°23' W 004°29'0 0.0
2019-Sep-29 18:58N 48°23' W 004°29'0 0.0
2019-Sep-29 18:28N 48°23' W 004°29'0 0.0
2019-Sep-29 17:58N 48°23' W 004°29'0 0.0
2019-Sep-29 17:28N 48°23' W 004°29'0 0.0
2019-Sep-29 16:58N 48°23' W 004°29'0 0.0
2019-Sep-29 16:28N 48°23' W 004°29'0 0.0
2019-Sep-29 15:58N 48°23' W 004°29'0 0.0
2019-Sep-29 15:28N 48°23' W 004°29'0 0.0
2019-Sep-29 14:58N 48°23' W 004°29'0 0.0
2019-Sep-29 14:28N 48°23' W 004°29'0 0.0
2019-Sep-29 13:58N 48°23' W 004°29'0 0.0
2019-Sep-29 13:28N 48°23' W 004°29'0 0.0
2019-Sep-29 12:58N 48°23' W 004°29'0 0.0
2019-Sep-29 12:28N 48°23' W 004°29'0 0.0
2019-Sep-29 11:58N 48°23' W 004°29'0 0.0
2019-Sep-29 11:28N 48°23' W 004°29'0 0.0
2019-Sep-29 10:58N 48°23' W 004°29'0 0.0
2019-Sep-29 10:28N 48°23' W 004°29'0 0.0
2019-Sep-29 09:58N 48°23' W 004°29'0 0.0
2019-Sep-29 09:28N 48°23' W 004°29'0 0.0
2019-Sep-29 08:58N 48°23' W 004°29'0 0.0
2019-Sep-29 08:28N 48°23' W 004°29'0 0.0
2019-Sep-29 07:58N 48°23' W 004°29'0 0.0
2019-Sep-29 07:28N 48°23' W 004°29'0 0.0
2019-Sep-29 06:58N 48°23' W 004°29'0 0.0
2019-Sep-29 06:28N 48°23' W 004°29'0 0.0
2019-Sep-29 05:58N 48°23' W 004°29'0 0.0
2019-Sep-29 05:28N 48°23' W 004°29'0 0.0
2019-Sep-29 04:58N 48°23' W 004°29'0 0.0
2019-Sep-29 04:28N 48°23' W 004°29'0 0.0
2019-Sep-29 03:58N 48°23' W 004°29'0 0.0
2019-Sep-29 03:28N 48°23' W 004°29'0 0.0
2019-Sep-29 02:58N 48°23' W 004°29'0 0.0
2019-Sep-29 02:28N 48°23' W 004°29'0 0.0
2019-Sep-29 01:58N 48°23' W 004°29'0 0.0
2019-Sep-29 01:28N 48°23' W 004°29'0 0.0
2019-Sep-29 00:58N 48°23' W 004°29'0 0.0
2019-Sep-29 00:28N 48°23' W 004°29'0 0.0
2019-Sep-28 23:58N 48°23' W 004°29'0 0.0
2019-Sep-28 23:28N 48°23' W 004°29'0 0.0
2019-Sep-28 22:58N 48°23' W 004°29'0 0.0
2019-Sep-28 22:28N 48°23' W 004°29'0 0.0
2019-Sep-28 21:58N 48°23' W 004°29'0 0.0
2019-Sep-28 21:28N 48°23' W 004°29'0 0.0
2019-Sep-28 20:58N 48°23' W 004°29'0 0.0
2019-Sep-28 20:28N 48°23' W 004°29'0 0.0
2019-Sep-28 19:58N 48°23' W 004°29'0 0.0
2019-Sep-28 19:28N 48°23' W 004°29'0 0.0
2019-Sep-28 18:58N 48°23' W 004°29'0 0.0
2019-Sep-28 18:28N 48°23' W 004°29'0 0.0
2019-Sep-28 17:58N 48°23' W 004°29'  

Dump ship's entire track history